sensor_id;sensor_type;location;lat;lon;timestamp;P1;durP1;ratioP1;P2;durP2;ratioP2
19854;SDS011;10088;47.946;2.532;2023-05-16T00:01:07;20.83;;;5.93;;
19854;SDS011;10088;47.946;2.532;2023-05-16T00:03:33;15.33;;;5.90;;
19854;SDS011;10088;47.946;2.532;2023-05-16T00:05:58;13.37;;;5.60;;
19854;SDS011;10088;47.946;2.532;2023-05-16T00:08:26;10.47;;;4.77;;
19854;SDS011;10088;47.946;2.532;2023-05-16T00:10:52;16.50;;;6.57;;
19854;SDS011;10088;47.946;2.532;2023-05-16T00:13:17;10.00;;;5.40;;
19854;SDS011;10088;47.946;2.532;2023-05-16T00:15:46;13.70;;;5.20;;
19854;SDS011;10088;47.946;2.532;2023-05-16T00:18:11;10.90;;;4.47;;
19854;SDS011;10088;47.946;2.532;2023-05-16T00:20:40;8.90;;;5.27;;
19854;SDS011;10088;47.946;2.532;2023-05-16T00:23:06;17.20;;;5.60;;
19854;SDS011;10088;47.946;2.532;2023-05-16T00:25:31;12.97;;;5.20;;
19854;SDS011;10088;47.946;2.532;2023-05-16T00:27:56;18.57;;;5.13;;
19854;SDS011;10088;47.946;2.532;2023-05-16T00:30:22;10.37;;;4.90;;
19854;SDS011;10088;47.946;2.532;2023-05-16T00:32:47;13.70;;;5.47;;
19854;SDS011;10088;47.946;2.532;2023-05-16T00:35:12;16.07;;;5.83;;
19854;SDS011;10088;47.946;2.532;2023-05-16T00:37:38;10.07;;;4.53;;
19854;SDS011;10088;47.946;2.532;2023-05-16T00:40:03;13.30;;;6.27;;
19854;SDS011;10088;47.946;2.532;2023-05-16T00:42:29;9.63;;;4.97;;
19854;SDS011;10088;47.946;2.532;2023-05-16T00:44:56;15.80;;;5.27;;
19854;SDS011;10088;47.946;2.532;2023-05-16T00:47:21;13.43;;;4.83;;
19854;SDS011;10088;47.946;2.532;2023-05-16T00:49:46;12.47;;;5.30;;
19854;SDS011;10088;47.946;2.532;2023-05-16T00:52:12;9.80;;;4.33;;
19854;SDS011;10088;47.946;2.532;2023-05-16T00:54:37;16.00;;;5.33;;
19854;SDS011;10088;47.946;2.532;2023-05-16T00:57:03;17.37;;;5.07;;
19854;SDS011;10088;47.946;2.532;2023-05-16T00:59:29;11.30;;;4.50;;
19854;SDS011;10088;47.946;2.532;2023-05-16T01:01:54;13.80;;;4.93;;
19854;SDS011;10088;47.946;2.532;2023-05-16T01:04:20;16.50;;;4.80;;
19854;SDS011;10088;47.946;2.532;2023-05-16T01:06:45;12.17;;;4.87;;
19854;SDS011;10088;47.946;2.532;2023-05-16T01:09:10;11.60;;;4.57;;
19854;SDS011;10088;47.946;2.532;2023-05-16T01:14:11;14.63;;;4.87;;
19854;SDS011;10088;47.946;2.532;2023-05-16T01:16:49;14.40;;;4.83;;
19854;SDS011;10088;47.946;2.532;2023-05-16T01:21:48;14.47;;;5.83;;
19854;SDS011;10088;47.946;2.532;2023-05-16T01:24:31;14.23;;;4.93;;
19854;SDS011;10088;47.946;2.532;2023-05-16T01:26:58;11.33;;;4.57;;
19854;SDS011;10088;47.946;2.532;2023-05-16T01:29:23;16.77;;;4.40;;
19854;SDS011;10088;47.946;2.532;2023-05-16T01:31:48;16.60;;;5.40;;
19854;SDS011;10088;47.946;2.532;2023-05-16T01:34:14;10.17;;;4.80;;
19854;SDS011;10088;47.946;2.532;2023-05-16T01:36:55;14.67;;;5.03;;
19854;SDS011;10088;47.946;2.532;2023-05-16T01:42:03;16.17;;;4.87;;
19854;SDS011;10088;47.946;2.532;2023-05-16T01:44:32;12.57;;;5.10;;
19854;SDS011;10088;47.946;2.532;2023-05-16T01:47:00;11.67;;;5.50;;
19854;SDS011;10088;47.946;2.532;2023-05-16T01:49:38;14.10;;;5.30;;
19854;SDS011;10088;47.946;2.532;2023-05-16T01:52:09;15.50;;;4.80;;
19854;SDS011;10088;47.946;2.532;2023-05-16T01:54:36;19.67;;;5.47;;
19854;SDS011;10088;47.946;2.532;2023-05-16T01:57:02;13.70;;;5.23;;
19854;SDS011;10088;47.946;2.532;2023-05-16T01:59:28;15.33;;;6.30;;
19854;SDS011;10088;47.946;2.532;2023-05-16T02:01:53;19.00;;;5.20;;
19854;SDS011;10088;47.946;2.532;2023-05-16T02:04:20;15.10;;;5.30;;
19854;SDS011;10088;47.946;2.532;2023-05-16T02:06:45;22.63;;;5.17;;
19854;SDS011;10088;47.946;2.532;2023-05-16T02:09:10;13.90;;;4.57;;
19854;SDS011;10088;47.946;2.532;2023-05-16T02:11:36;15.33;;;4.27;;
19854;SDS011;10088;47.946;2.532;2023-05-16T02:14:01;15.80;;;5.30;;
19854;SDS011;10088;47.946;2.532;2023-05-16T02:18:53;22.30;;;4.13;;
19854;SDS011;10088;47.946;2.532;2023-05-16T02:21:18;17.17;;;4.63;;
19854;SDS011;10088;47.946;2.532;2023-05-16T02:23:43;17.50;;;4.30;;
19854;SDS011;10088;47.946;2.532;2023-05-16T02:26:09;17.53;;;4.83;;
19854;SDS011;10088;47.946;2.532;2023-05-16T02:28:34;19.10;;;5.23;;
19854;SDS011;10088;47.946;2.532;2023-05-16T02:30:59;12.33;;;4.20;;
19854;SDS011;10088;47.946;2.532;2023-05-16T02:33:25;17.77;;;5.40;;
19854;SDS011;10088;47.946;2.532;2023-05-16T02:35:51;17.77;;;5.23;;
19854;SDS011;10088;47.946;2.532;2023-05-16T02:38:17;12.50;;;4.40;;
19854;SDS011;10088;47.946;2.532;2023-05-16T02:40:44;14.03;;;5.23;;
19854;SDS011;10088;47.946;2.532;2023-05-16T02:43:10;17.87;;;5.20;;
19854;SDS011;10088;47.946;2.532;2023-05-16T02:45:35;16.30;;;5.00;;
19854;SDS011;10088;47.946;2.532;2023-05-16T02:48:00;24.90;;;5.73;;
19854;SDS011;10088;47.946;2.532;2023-05-16T02:50:26;24.33;;;5.07;;
19854;SDS011;10088;47.946;2.532;2023-05-16T02:52:51;16.70;;;4.40;;
19854;SDS011;10088;47.946;2.532;2023-05-16T02:55:16;25.33;;;5.80;;
19854;SDS011;10088;47.946;2.532;2023-05-16T02:57:42;16.07;;;4.13;;
19854;SDS011;10088;47.946;2.532;2023-05-16T03:00:07;18.33;;;4.60;;
19854;SDS011;10088;47.946;2.532;2023-05-16T03:02:35;16.10;;;4.90;;
19854;SDS011;10088;47.946;2.532;2023-05-16T03:05:01;16.17;;;4.50;;
19854;SDS011;10088;47.946;2.532;2023-05-16T03:07:26;19.80;;;5.00;;
19854;SDS011;10088;47.946;2.532;2023-05-16T03:09:52;16.43;;;4.50;;
19854;SDS011;10088;47.946;2.532;2023-05-16T03:12:17;10.53;;;3.87;;
19854;SDS011;10088;47.946;2.532;2023-05-16T03:14:42;15.23;;;3.93;;
19854;SDS011;10088;47.946;2.532;2023-05-16T03:17:08;15.07;;;4.60;;
19854;SDS011;10088;47.946;2.532;2023-05-16T03:19:33;14.33;;;5.07;;
19854;SDS011;10088;47.946;2.532;2023-05-16T03:21:59;13.67;;;3.73;;
19854;SDS011;10088;47.946;2.532;2023-05-16T03:24:24;15.80;;;4.77;;
19854;SDS011;10088;47.946;2.532;2023-05-16T03:26:49;17.03;;;4.03;;
19854;SDS011;10088;47.946;2.532;2023-05-16T03:29:15;20.90;;;5.03;;
19854;SDS011;10088;47.946;2.532;2023-05-16T03:31:40;21.03;;;3.87;;
19854;SDS011;10088;47.946;2.532;2023-05-16T03:34:06;19.47;;;4.43;;
19854;SDS011;10088;47.946;2.532;2023-05-16T03:36:31;12.10;;;4.00;;
19854;SDS011;10088;47.946;2.532;2023-05-16T03:38:57;21.13;;;4.40;;
19854;SDS011;10088;47.946;2.532;2023-05-16T03:41:22;19.23;;;3.70;;
19854;SDS011;10088;47.946;2.532;2023-05-16T03:43:47;16.63;;;3.97;;
19854;SDS011;10088;47.946;2.532;2023-05-16T03:46:13;14.63;;;3.90;;
19854;SDS011;10088;47.946;2.532;2023-05-16T03:48:38;15.70;;;4.07;;
19854;SDS011;10088;47.946;2.532;2023-05-16T03:51:03;14.40;;;4.00;;
19854;SDS011;10088;47.946;2.532;2023-05-16T03:53:29;15.27;;;3.63;;
19854;SDS011;10088;47.946;2.532;2023-05-16T03:55:54;16.53;;;3.80;;
19854;SDS011;10088;47.946;2.532;2023-05-16T03:58:19;23.57;;;3.73;;
19854;SDS011;10088;47.946;2.532;2023-05-16T04:00:44;19.27;;;4.37;;
19854;SDS011;10088;47.946;2.532;2023-05-16T04:03:10;18.73;;;3.97;;
19854;SDS011;10088;47.946;2.532;2023-05-16T04:05:36;23.07;;;4.83;;
19854;SDS011;10088;47.946;2.532;2023-05-16T04:08:01;19.40;;;4.13;;
19854;SDS011;10088;47.946;2.532;2023-05-16T04:10:26;20.50;;;4.70;;
19854;SDS011;10088;47.946;2.532;2023-05-16T04:12:52;25.07;;;4.60;;
19854;SDS011;10088;47.946;2.532;2023-05-16T04:15:17;17.93;;;3.60;;
19854;SDS011;10088;47.946;2.532;2023-05-16T04:17:44;29.87;;;4.47;;
19854;SDS011;10088;47.946;2.532;2023-05-16T04:20:09;20.27;;;4.03;;
19854;SDS011;10088;47.946;2.532;2023-05-16T04:22:35;26.30;;;4.10;;
19854;SDS011;10088;47.946;2.532;2023-05-16T04:25:00;25.70;;;4.20;;
19854;SDS011;10088;47.946;2.532;2023-05-16T04:27:25;19.87;;;3.90;;
19854;SDS011;10088;47.946;2.532;2023-05-16T04:29:51;16.33;;;4.10;;
19854;SDS011;10088;47.946;2.532;2023-05-16T04:32:16;19.80;;;3.73;;
19854;SDS011;10088;47.946;2.532;2023-05-16T04:34:42;17.17;;;3.30;;
19854;SDS011;10088;47.946;2.532;2023-05-16T04:37:08;22.53;;;3.73;;
19854;SDS011;10088;47.946;2.532;2023-05-16T04:39:33;16.87;;;3.90;;
19854;SDS011;10088;47.946;2.532;2023-05-16T04:41:59;19.23;;;4.57;;
19854;SDS011;10088;47.946;2.532;2023-05-16T04:44:25;18.50;;;3.77;;
19854;SDS011;10088;47.946;2.532;2023-05-16T04:46:51;16.20;;;3.90;;
19854;SDS011;10088;47.946;2.532;2023-05-16T04:49:17;14.93;;;3.77;;
19854;SDS011;10088;47.946;2.532;2023-05-16T04:51:42;14.43;;;3.57;;
19854;SDS011;10088;47.946;2.532;2023-05-16T04:54:08;17.03;;;3.70;;
19854;SDS011;10088;47.946;2.532;2023-05-16T04:56:35;17.30;;;3.67;;
19854;SDS011;10088;47.946;2.532;2023-05-16T04:59:00;21.73;;;3.67;;
19854;SDS011;10088;47.946;2.532;2023-05-16T05:01:25;15.37;;;3.30;;
19854;SDS011;10088;47.946;2.532;2023-05-16T05:03:51;31.90;;;4.20;;
19854;SDS011;10088;47.946;2.532;2023-05-16T05:06:16;17.37;;;3.97;;
19854;SDS011;10088;47.946;2.532;2023-05-16T05:08:41;23.63;;;3.27;;
19854;SDS011;10088;47.946;2.532;2023-05-16T05:11:07;17.80;;;3.60;;
19854;SDS011;10088;47.946;2.532;2023-05-16T05:13:32;16.67;;;4.10;;
19854;SDS011;10088;47.946;2.532;2023-05-16T05:15:57;21.10;;;3.60;;
19854;SDS011;10088;47.946;2.532;2023-05-16T05:18:23;26.27;;;3.80;;
19854;SDS011;10088;47.946;2.532;2023-05-16T05:20:48;15.10;;;4.13;;
19854;SDS011;10088;47.946;2.532;2023-05-16T05:23:14;17.70;;;3.63;;
19854;SDS011;10088;47.946;2.532;2023-05-16T05:25:39;22.73;;;3.50;;
19854;SDS011;10088;47.946;2.532;2023-05-16T05:28:05;19.43;;;3.80;;
19854;SDS011;10088;47.946;2.532;2023-05-16T05:30:30;14.90;;;3.83;;
19854;SDS011;10088;47.946;2.532;2023-05-16T05:32:56;20.00;;;4.23;;
19854;SDS011;10088;47.946;2.532;2023-05-16T05:35:21;22.33;;;3.47;;
19854;SDS011;10088;47.946;2.532;2023-05-16T05:37:46;18.93;;;3.33;;
19854;SDS011;10088;47.946;2.532;2023-05-16T05:40:12;14.37;;;3.03;;
19854;SDS011;10088;47.946;2.532;2023-05-16T05:42:37;23.53;;;3.93;;
19854;SDS011;10088;47.946;2.532;2023-05-16T05:45:03;12.30;;;3.20;;
19854;SDS011;10088;47.946;2.532;2023-05-16T05:47:28;27.27;;;5.57;;
19854;SDS011;10088;47.946;2.532;2023-05-16T05:49:54;15.90;;;3.20;;
19854;SDS011;10088;47.946;2.532;2023-05-16T05:52:19;19.77;;;3.73;;
19854;SDS011;10088;47.946;2.532;2023-05-16T05:54:44;14.50;;;3.47;;
19854;SDS011;10088;47.946;2.532;2023-05-16T05:57:10;17.20;;;3.90;;
19854;SDS011;10088;47.946;2.532;2023-05-16T05:59:35;11.33;;;3.20;;
19854;SDS011;10088;47.946;2.532;2023-05-16T06:02:00;20.00;;;3.77;;
19854;SDS011;10088;47.946;2.532;2023-05-16T06:04:26;15.97;;;3.00;;
19854;SDS011;10088;47.946;2.532;2023-05-16T06:06:51;15.20;;;3.43;;
19854;SDS011;10088;47.946;2.532;2023-05-16T06:09:16;15.10;;;3.10;;
19854;SDS011;10088;47.946;2.532;2023-05-16T06:11:41;16.97;;;3.00;;
19854;SDS011;10088;47.946;2.532;2023-05-16T06:14:09;13.30;;;2.57;;
19854;SDS011;10088;47.946;2.532;2023-05-16T06:16:35;19.20;;;3.67;;
19854;SDS011;10088;47.946;2.532;2023-05-16T06:19:00;15.60;;;3.40;;
19854;SDS011;10088;47.946;2.532;2023-05-16T06:21:25;15.13;;;2.90;;
19854;SDS011;10088;47.946;2.532;2023-05-16T06:23:51;16.77;;;3.47;;
19854;SDS011;10088;47.946;2.532;2023-05-16T06:26:16;15.13;;;3.07;;
19854;SDS011;10088;47.946;2.532;2023-05-16T06:28:41;15.30;;;3.80;;
19854;SDS011;10088;47.946;2.532;2023-05-16T06:31:06;10.53;;;2.50;;
19854;SDS011;10088;47.946;2.532;2023-05-16T06:33:32;16.10;;;3.23;;
19854;SDS011;10088;47.946;2.532;2023-05-16T06:35:58;13.67;;;3.37;;
19854;SDS011;10088;47.946;2.532;2023-05-16T06:38:23;12.83;;;3.47;;
19854;SDS011;10088;47.946;2.532;2023-05-16T06:40:48;12.77;;;3.03;;
19854;SDS011;10088;47.946;2.532;2023-05-16T06:43:13;18.77;;;3.40;;
19854;SDS011;10088;47.946;2.532;2023-05-16T06:45:39;14.73;;;3.10;;
19854;SDS011;10088;47.946;2.532;2023-05-16T06:48:06;20.00;;;3.97;;
19854;SDS011;10088;47.946;2.532;2023-05-16T06:50:31;11.97;;;2.97;;
19854;SDS011;10088;47.946;2.532;2023-05-16T06:52:56;14.53;;;3.50;;
19854;SDS011;10088;47.946;2.532;2023-05-16T06:55:22;10.77;;;3.30;;
19854;SDS011;10088;47.946;2.532;2023-05-16T06:57:47;19.17;;;3.10;;
19854;SDS011;10088;47.946;2.532;2023-05-16T07:00:12;10.20;;;2.93;;
19854;SDS011;10088;47.946;2.532;2023-05-16T07:02:38;10.87;;;2.90;;
19854;SDS011;10088;47.946;2.532;2023-05-16T07:05:03;11.53;;;3.27;;
19854;SDS011;10088;47.946;2.532;2023-05-16T07:07:28;14.70;;;3.50;;
19854;SDS011;10088;47.946;2.532;2023-05-16T07:09:54;16.40;;;3.10;;
19854;SDS011;10088;47.946;2.532;2023-05-16T07:12:19;12.67;;;2.87;;
19854;SDS011;10088;47.946;2.532;2023-05-16T07:14:45;15.50;;;3.40;;
19854;SDS011;10088;47.946;2.532;2023-05-16T07:17:10;15.00;;;2.83;;
19854;SDS011;10088;47.946;2.532;2023-05-16T07:19:36;13.77;;;3.33;;
19854;SDS011;10088;47.946;2.532;2023-05-16T07:22:01;8.57;;;2.63;;
19854;SDS011;10088;47.946;2.532;2023-05-16T07:24:26;13.40;;;3.53;;
19854;SDS011;10088;47.946;2.532;2023-05-16T07:26:51;10.43;;;2.97;;
19854;SDS011;10088;47.946;2.532;2023-05-16T07:29:17;12.47;;;2.60;;
19854;SDS011;10088;47.946;2.532;2023-05-16T07:31:42;9.83;;;2.57;;
19854;SDS011;10088;47.946;2.532;2023-05-16T07:34:08;8.13;;;2.27;;
19854;SDS011;10088;47.946;2.532;2023-05-16T07:36:34;9.60;;;2.83;;
19854;SDS011;10088;47.946;2.532;2023-05-16T07:38:59;10.90;;;2.70;;
19854;SDS011;10088;47.946;2.532;2023-05-16T07:41:24;7.97;;;2.17;;
19854;SDS011;10088;47.946;2.532;2023-05-16T07:43:50;13.43;;;2.80;;
19854;SDS011;10088;47.946;2.532;2023-05-16T07:46:15;9.80;;;1.97;;
19854;SDS011;10088;47.946;2.532;2023-05-16T07:48:40;9.27;;;2.10;;
19854;SDS011;10088;47.946;2.532;2023-05-16T07:51:06;9.23;;;2.53;;
19854;SDS011;10088;47.946;2.532;2023-05-16T07:53:31;10.20;;;1.63;;
19854;SDS011;10088;47.946;2.532;2023-05-16T07:55:56;10.30;;;2.33;;
19854;SDS011;10088;47.946;2.532;2023-05-16T07:58:22;7.80;;;2.00;;
19854;SDS011;10088;47.946;2.532;2023-05-16T08:00:47;7.50;;;1.93;;
19854;SDS011;10088;47.946;2.532;2023-05-16T08:03:13;10.83;;;2.37;;
19854;SDS011;10088;47.946;2.532;2023-05-16T08:05:38;8.97;;;2.87;;
19854;SDS011;10088;47.946;2.532;2023-05-16T08:08:04;11.03;;;1.93;;
19854;SDS011;10088;47.946;2.532;2023-05-16T08:10:29;9.40;;;2.30;;
19854;SDS011;10088;47.946;2.532;2023-05-16T08:12:55;6.77;;;2.20;;
19854;SDS011;10088;47.946;2.532;2023-05-16T08:15:20;5.30;;;2.13;;
19854;SDS011;10088;47.946;2.532;2023-05-16T08:17:45;11.03;;;2.00;;
19854;SDS011;10088;47.946;2.532;2023-05-16T08:20:11;13.83;;;2.67;;
19854;SDS011;10088;47.946;2.532;2023-05-16T08:22:36;7.93;;;2.00;;
19854;SDS011;10088;47.946;2.532;2023-05-16T08:25:01;13.00;;;2.50;;
19854;SDS011;10088;47.946;2.532;2023-05-16T08:27:27;9.10;;;1.93;;
19854;SDS011;10088;47.946;2.532;2023-05-16T08:29:52;6.07;;;1.90;;
19854;SDS011;10088;47.946;2.532;2023-05-16T08:32:18;7.57;;;2.30;;
19854;SDS011;10088;47.946;2.532;2023-05-16T08:34:43;7.63;;;2.00;;
19854;SDS011;10088;47.946;2.532;2023-05-16T08:37:08;7.90;;;2.07;;
19854;SDS011;10088;47.946;2.532;2023-05-16T08:39:34;7.67;;;1.77;;
19854;SDS011;10088;47.946;2.532;2023-05-16T08:42:00;8.97;;;2.20;;
19854;SDS011;10088;47.946;2.532;2023-05-16T08:44:26;9.10;;;2.60;;
19854;SDS011;10088;47.946;2.532;2023-05-16T08:46:51;7.47;;;1.70;;
19854;SDS011;10088;47.946;2.532;2023-05-16T08:49:17;7.87;;;1.50;;
19854;SDS011;10088;47.946;2.532;2023-05-16T08:51:43;4.87;;;1.53;;
19854;SDS011;10088;47.946;2.532;2023-05-16T08:54:11;6.13;;;1.73;;
19854;SDS011;10088;47.946;2.532;2023-05-16T08:56:37;9.03;;;1.77;;
19854;SDS011;10088;47.946;2.532;2023-05-16T08:59:02;5.97;;;1.93;;
19854;SDS011;10088;47.946;2.532;2023-05-16T09:01:29;7.90;;;1.70;;
19854;SDS011;10088;47.946;2.532;2023-05-16T09:03:54;5.53;;;1.50;;
19854;SDS011;10088;47.946;2.532;2023-05-16T09:06:20;5.73;;;1.53;;
19854;SDS011;10088;47.946;2.532;2023-05-16T09:08:45;7.97;;;1.70;;
19854;SDS011;10088;47.946;2.532;2023-05-16T09:11:11;4.57;;;1.70;;
19854;SDS011;10088;47.946;2.532;2023-05-16T09:13:37;6.67;;;1.40;;
19854;SDS011;10088;47.946;2.532;2023-05-16T09:16:09;6.60;;;1.30;;
19854;SDS011;10088;47.946;2.532;2023-05-16T09:18:35;8.03;;;1.60;;
19854;SDS011;10088;47.946;2.532;2023-05-16T09:21:01;6.70;;;1.50;;
19854;SDS011;10088;47.946;2.532;2023-05-16T09:23:27;5.37;;;1.47;;
19854;SDS011;10088;47.946;2.532;2023-05-16T09:25:53;5.47;;;1.93;;
19854;SDS011;10088;47.946;2.532;2023-05-16T09:28:18;6.27;;;1.53;;
19854;SDS011;10088;47.946;2.532;2023-05-16T09:30:45;7.60;;;1.50;;
19854;SDS011;10088;47.946;2.532;2023-05-16T09:33:10;4.40;;;1.13;;
19854;SDS011;10088;47.946;2.532;2023-05-16T09:35:36;5.37;;;1.07;;
19854;SDS011;10088;47.946;2.532;2023-05-16T09:38:01;6.83;;;1.20;;
19854;SDS011;10088;47.946;2.532;2023-05-16T09:40:27;6.33;;;1.53;;
19854;SDS011;10088;47.946;2.532;2023-05-16T09:43:05;5.10;;;1.50;;
19854;SDS011;10088;47.946;2.532;2023-05-16T09:45:31;6.67;;;1.60;;
19854;SDS011;10088;47.946;2.532;2023-05-16T09:48:01;5.87;;;1.30;;
19854;SDS011;10088;47.946;2.532;2023-05-16T09:50:28;5.93;;;1.30;;
19854;SDS011;10088;47.946;2.532;2023-05-16T09:52:55;7.33;;;1.67;;
19854;SDS011;10088;47.946;2.532;2023-05-16T09:55:24;4.63;;;1.37;;
19854;SDS011;10088;47.946;2.532;2023-05-16T09:57:55;5.87;;;1.33;;
19854;SDS011;10088;47.946;2.532;2023-05-16T10:00:30;4.17;;;1.20;;
19854;SDS011;10088;47.946;2.532;2023-05-16T10:03:03;4.90;;;1.23;;
19854;SDS011;10088;47.946;2.532;2023-05-16T10:05:37;5.70;;;1.63;;
19854;SDS011;10088;47.946;2.532;2023-05-16T10:08:09;5.87;;;1.33;;
19854;SDS011;10088;47.946;2.532;2023-05-16T10:10:40;4.60;;;1.10;;
19854;SDS011;10088;47.946;2.532;2023-05-16T10:13:07;8.67;;;1.40;;
19854;SDS011;10088;47.946;2.532;2023-05-16T10:15:41;5.90;;;1.37;;
19854;SDS011;10088;47.946;2.532;2023-05-16T10:18:17;4.23;;;1.10;;
19854;SDS011;10088;47.946;2.532;2023-05-16T10:20:52;5.70;;;1.40;;
19854;SDS011;10088;47.946;2.532;2023-05-16T10:23:26;7.63;;;1.90;;
19854;SDS011;10088;47.946;2.532;2023-05-16T10:25:55;5.97;;;1.20;;
19854;SDS011;10088;47.946;2.532;2023-05-16T10:28:28;6.67;;;1.43;;
19854;SDS011;10088;47.946;2.532;2023-05-16T10:30:57;3.43;;;1.30;;
19854;SDS011;10088;47.946;2.532;2023-05-16T10:33:29;4.77;;;1.43;;
19854;SDS011;10088;47.946;2.532;2023-05-16T10:36:01;4.97;;;1.37;;
19854;SDS011;10088;47.946;2.532;2023-05-16T10:38:33;4.80;;;1.40;;
19854;SDS011;10088;47.946;2.532;2023-05-16T10:41:01;3.17;;;1.10;;
19854;SDS011;10088;47.946;2.532;2023-05-16T10:43:31;3.93;;;1.10;;
19854;SDS011;10088;47.946;2.532;2023-05-16T10:46:01;5.90;;;1.80;;
19854;SDS011;10088;47.946;2.532;2023-05-16T10:48:34;7.30;;;1.60;;
19854;SDS011;10088;47.946;2.532;2023-05-16T10:53:52;4.63;;;1.53;;
19854;SDS011;10088;47.946;2.532;2023-05-16T10:56:25;4.40;;;1.30;;
19854;SDS011;10088;47.946;2.532;2023-05-16T10:58:58;4.33;;;1.07;;
19854;SDS011;10088;47.946;2.532;2023-05-16T11:02:20;5.00;;;1.17;;
19854;SDS011;10088;47.946;2.532;2023-05-16T11:04:17;6.57;;;1.60;;
19854;SDS011;10088;47.946;2.532;2023-05-16T11:06:51;6.20;;;1.17;;
19854;SDS011;10088;47.946;2.532;2023-05-16T11:16:47;2.33;;;0.67;;
19854;SDS011;10088;47.946;2.532;2023-05-16T11:19:13;6.13;;;1.30;;
19854;SDS011;10088;47.946;2.532;2023-05-16T11:22:04;3.50;;;0.80;;
19854;SDS011;10088;47.946;2.532;2023-05-16T11:24:31;4.27;;;1.10;;
19854;SDS011;10088;47.946;2.532;2023-05-16T11:26:58;2.90;;;0.83;;
19854;SDS011;10088;47.946;2.532;2023-05-16T11:29:24;4.10;;;1.17;;
19854;SDS011;10088;47.946;2.532;2023-05-16T11:31:51;3.50;;;1.10;;
19854;SDS011;10088;47.946;2.532;2023-05-16T11:34:16;4.90;;;1.20;;
19854;SDS011;10088;47.946;2.532;2023-05-16T11:36:42;2.43;;;0.97;;
19854;SDS011;10088;47.946;2.532;2023-05-16T11:39:08;4.47;;;1.07;;
19854;SDS011;10088;47.946;2.532;2023-05-16T11:41:34;5.80;;;1.37;;
19854;SDS011;10088;47.946;2.532;2023-05-16T11:43:59;4.83;;;1.07;;
19854;SDS011;10088;47.946;2.532;2023-05-16T11:46:25;6.00;;;1.30;;
19854;SDS011;10088;47.946;2.532;2023-05-16T11:48:51;3.23;;;0.93;;
19854;SDS011;10088;47.946;2.532;2023-05-16T11:51:17;3.37;;;1.03;;
19854;SDS011;10088;47.946;2.532;2023-05-16T11:53:44;6.80;;;1.10;;
19854;SDS011;10088;47.946;2.532;2023-05-16T11:56:10;14.60;;;1.40;;
19854;SDS011;10088;47.946;2.532;2023-05-16T11:58:35;3.83;;;1.03;;
19854;SDS011;10088;47.946;2.532;2023-05-16T12:01:02;7.13;;;1.27;;
19854;SDS011;10088;47.946;2.532;2023-05-16T12:03:28;4.70;;;0.80;;
19854;SDS011;10088;47.946;2.532;2023-05-16T12:05:57;3.27;;;1.03;;
19854;SDS011;10088;47.946;2.532;2023-05-16T12:08:23;5.40;;;1.00;;
19854;SDS011;10088;47.946;2.532;2023-05-16T12:10:51;4.30;;;1.10;;
19854;SDS011;10088;47.946;2.532;2023-05-16T12:13:17;7.53;;;1.23;;
19854;SDS011;10088;47.946;2.532;2023-05-16T12:15:43;9.73;;;1.50;;
19854;SDS011;10088;47.946;2.532;2023-05-16T12:18:08;7.50;;;1.20;;
19854;SDS011;10088;47.946;2.532;2023-05-16T12:20:34;4.03;;;1.13;;
19854;SDS011;10088;47.946;2.532;2023-05-16T12:22:59;7.47;;;1.00;;
19854;SDS011;10088;47.946;2.532;2023-05-16T12:27:53;4.87;;;1.27;;
19854;SDS011;10088;47.946;2.532;2023-05-16T12:30:20;2.60;;;0.90;;
19854;SDS011;10088;47.946;2.532;2023-05-16T12:32:51;3.17;;;1.17;;
19854;SDS011;10088;47.946;2.532;2023-05-16T12:35:17;5.33;;;1.53;;
19854;SDS011;10088;47.946;2.532;2023-05-16T12:37:42;3.67;;;1.03;;
19854;SDS011;10088;47.946;2.532;2023-05-16T12:40:08;3.00;;;0.90;;
19854;SDS011;10088;47.946;2.532;2023-05-16T12:42:34;7.43;;;1.07;;
19854;SDS011;10088;47.946;2.532;2023-05-16T12:45:00;3.30;;;1.20;;
19854;SDS011;10088;47.946;2.532;2023-05-16T12:47:33;5.63;;;1.10;;
19854;SDS011;10088;47.946;2.532;2023-05-16T12:49:59;8.33;;;0.90;;
19854;SDS011;10088;47.946;2.532;2023-05-16T12:52:27;3.07;;;1.00;;
19854;SDS011;10088;47.946;2.532;2023-05-16T12:54:53;6.10;;;1.20;;
19854;SDS011;10088;47.946;2.532;2023-05-16T12:57:18;2.50;;;0.97;;
19854;SDS011;10088;47.946;2.532;2023-05-16T12:59:44;6.17;;;1.20;;
19854;SDS011;10088;47.946;2.532;2023-05-16T13:02:09;3.37;;;0.87;;
19854;SDS011;10088;47.946;2.532;2023-05-16T13:04:34;3.60;;;0.70;;
19854;SDS011;10088;47.946;2.532;2023-05-16T13:07:01;4.37;;;1.03;;
19854;SDS011;10088;47.946;2.532;2023-05-16T13:09:26;3.17;;;0.70;;
19854;SDS011;10088;47.946;2.532;2023-05-16T13:11:52;1.07;;;0.57;;
19854;SDS011;10088;47.946;2.532;2023-05-16T13:14:17;3.13;;;0.80;;
19854;SDS011;10088;47.946;2.532;2023-05-16T13:16:42;4.10;;;0.70;;
19854;SDS011;10088;47.946;2.532;2023-05-16T13:19:08;3.10;;;0.90;;
19854;SDS011;10088;47.946;2.532;2023-05-16T13:21:34;13.07;;;1.10;;
19854;SDS011;10088;47.946;2.532;2023-05-16T13:23:59;4.57;;;1.10;;
19854;SDS011;10088;47.946;2.532;2023-05-16T13:26:24;3.53;;;0.90;;
19854;SDS011;10088;47.946;2.532;2023-05-16T13:28:50;3.37;;;1.00;;
19854;SDS011;10088;47.946;2.532;2023-05-16T13:31:17;2.27;;;0.97;;
19854;SDS011;10088;47.946;2.532;2023-05-16T13:33:42;3.73;;;0.90;;
19854;SDS011;10088;47.946;2.532;2023-05-16T13:36:07;5.07;;;0.97;;
19854;SDS011;10088;47.946;2.532;2023-05-16T13:38:33;3.30;;;0.90;;
19854;SDS011;10088;47.946;2.532;2023-05-16T13:40:58;4.43;;;1.00;;
19854;SDS011;10088;47.946;2.532;2023-05-16T13:43:24;4.10;;;1.00;;
19854;SDS011;10088;47.946;2.532;2023-05-16T13:45:49;4.37;;;1.13;;
19854;SDS011;10088;47.946;2.532;2023-05-16T13:48:15;4.57;;;0.90;;
19854;SDS011;10088;47.946;2.532;2023-05-16T13:50:40;6.53;;;1.07;;
19854;SDS011;10088;47.946;2.532;2023-05-16T13:53:06;3.30;;;0.87;;
19854;SDS011;10088;47.946;2.532;2023-05-16T13:55:31;1.83;;;0.70;;
19854;SDS011;10088;47.946;2.532;2023-05-16T13:57:56;6.17;;;1.20;;
19854;SDS011;10088;47.946;2.532;2023-05-16T14:00:22;5.03;;;1.07;;
19854;SDS011;10088;47.946;2.532;2023-05-16T14:02:47;3.93;;;1.10;;
19854;SDS011;10088;47.946;2.532;2023-05-16T14:05:12;3.77;;;1.10;;
19854;SDS011;10088;47.946;2.532;2023-05-16T14:07:38;2.30;;;0.80;;
19854;SDS011;10088;47.946;2.532;2023-05-16T14:10:03;7.03;;;0.97;;
19854;SDS011;10088;47.946;2.532;2023-05-16T14:12:30;2.57;;;0.90;;
19854;SDS011;10088;47.946;2.532;2023-05-16T14:14:56;2.63;;;0.97;;
19854;SDS011;10088;47.946;2.532;2023-05-16T14:17:21;4.73;;;1.00;;
19854;SDS011;10088;47.946;2.532;2023-05-16T14:19:46;10.07;;;2.33;;
19854;SDS011;10088;47.946;2.532;2023-05-16T14:22:11;3.60;;;0.90;;
19854;SDS011;10088;47.946;2.532;2023-05-16T14:24:37;3.53;;;1.10;;
19854;SDS011;10088;47.946;2.532;2023-05-16T14:27:02;3.77;;;1.10;;
19854;SDS011;10088;47.946;2.532;2023-05-16T14:29:28;3.27;;;0.93;;
19854;SDS011;10088;47.946;2.532;2023-05-16T14:31:53;3.73;;;0.90;;
19854;SDS011;10088;47.946;2.532;2023-05-16T14:34:18;3.47;;;1.27;;
19854;SDS011;10088;47.946;2.532;2023-05-16T14:36:44;3.70;;;1.10;;
19854;SDS011;10088;47.946;2.532;2023-05-16T14:39:09;6.20;;;1.10;;
19854;SDS011;10088;47.946;2.532;2023-05-16T14:41:34;3.77;;;1.20;;
19854;SDS011;10088;47.946;2.532;2023-05-16T14:44:00;3.20;;;1.00;;
19854;SDS011;10088;47.946;2.532;2023-05-16T14:46:25;3.30;;;0.90;;
19854;SDS011;10088;47.946;2.532;2023-05-16T14:48:50;3.70;;;0.93;;
19854;SDS011;10088;47.946;2.532;2023-05-16T14:51:16;3.77;;;1.13;;
19854;SDS011;10088;47.946;2.532;2023-05-16T14:53:41;3.67;;;0.90;;
19854;SDS011;10088;47.946;2.532;2023-05-16T14:56:07;2.97;;;0.97;;
19854;SDS011;10088;47.946;2.532;2023-05-16T14:58:32;4.23;;;0.80;;